createdAt,value
2017-03-31T00:00:59.217Z,12.37
2017-03-31T00:01:59.243Z,12.39
2017-03-31T00:02:59.262Z,12.37
2017-03-31T00:04:13.902Z,12.37
2017-03-31T00:04:59.310Z,12.32
2017-03-31T00:05:59.330Z,12.38
2017-03-31T00:06:59.354Z,12.45
2017-03-31T00:07:59.379Z,12.39
2017-03-31T00:08:59.396Z,12.39
2017-03-31T00:09:59.422Z,12.39
2017-03-31T00:10:59.142Z,12.42
2017-03-31T00:11:59.465Z,12.39
2017-03-31T00:12:59.492Z,12.35
2017-03-31T00:13:59.511Z,12.39
2017-03-31T00:15:59.558Z,12.31
2017-03-31T00:17:59.602Z,12.46
2017-03-31T00:18:59.626Z,12.45
2017-03-31T00:20:14.264Z,12.46
2017-03-31T00:21:14.284Z,12.41
2017-03-31T00:21:59.694Z,12.47
2017-03-31T00:22:59.718Z,12.41
2017-03-31T00:24:14.353Z,12.37
2017-03-31T00:24:59.760Z,12.37
2017-03-31T00:25:59.478Z,12.34
2017-03-31T00:26:59.807Z,12.42
2017-03-31T00:27:59.827Z,12.32
2017-03-31T00:28:59.849Z,12.34
2017-03-31T00:30:59.893Z,12.29
2017-03-31T00:31:59.917Z,12.37
2017-03-31T00:32:59.944Z,12.24
2017-03-31T00:33:59.968Z,12.28
2017-03-31T00:34:59.982Z,12.23
2017-03-31T00:36:00.013Z,12.21
2017-03-31T00:37:00.031Z,12.19
2017-03-31T00:38:00.053Z,12.23
2017-03-31T00:39:00.074Z,12.14
2017-03-31T00:40:14.712Z,12.19
2017-03-31T00:41:00.120Z,12.09
2017-03-31T00:42:00.141Z,12.16
2017-03-31T00:43:00.163Z,12.16
2017-03-31T00:44:00.188Z,12.16
2017-03-31T00:45:00.205Z,12.17
2017-03-31T00:46:00.230Z,12.2
2017-03-31T00:47:00.262Z,12.19
2017-03-31T00:48:00.275Z,12.09
2017-03-31T00:49:00.300Z,12.1
2017-03-31T00:50:00.015Z,12.05
2017-03-31T00:51:14.959Z,12.12
2017-03-31T00:52:00.367Z,12.04
2017-03-31T00:53:00.390Z,12.04
2017-03-31T00:54:00.407Z,12.07
2017-03-31T00:55:00.430Z,12.17
2017-03-31T00:56:15.068Z,12.05
2017-03-31T00:57:00.474Z,12.01
2017-03-31T00:58:00.499Z,12.05
2017-03-31T01:00:00.541Z,11.9
2017-03-31T01:01:00.564Z,11.94
2017-03-31T01:02:00.587Z,11.98
2017-03-31T01:03:00.610Z,11.95
2017-03-31T01:04:00.632Z,11.85
2017-03-31T01:05:00.659Z,11.83
2017-03-31T01:06:00.677Z,11.83
2017-03-31T01:07:00.700Z,11.78
2017-03-31T01:08:15.336Z,11.76
2017-03-31T01:09:15.357Z,11.72
2017-03-31T01:10:00.765Z,11.78
2017-03-31T01:11:00.788Z,11.7
2017-03-31T01:12:15.425Z,11.76
2017-03-31T01:13:00.845Z,11.61
2017-03-31T01:14:00.869Z,11.61
2017-03-31T01:15:00.886Z,11.7
2017-03-31T01:16:00.899Z,11.69
2017-03-31T01:17:00.933Z,11.7
2017-03-31T01:18:00.951Z,11.64
2017-03-31T01:19:00.970Z,11.64
2017-03-31T01:20:00.996Z,11.67
2017-03-31T01:21:01.009Z,11.7
2017-03-31T01:22:01.030Z,11.65
2017-03-31T01:23:00.752Z,11.58
2017-03-31T01:24:15.391Z,11.72
2017-03-31T01:25:01.150Z,11.69
2017-03-31T01:26:01.120Z,11.65
2017-03-31T01:27:15.760Z,11.55
2017-03-31T01:28:01.172Z,11.52
2017-03-31T01:29:01.188Z,11.52
2017-03-31T01:30:01.211Z,11.58
2017-03-31T01:31:01.231Z,11.46
2017-03-31T01:32:01.260Z,11.49
2017-03-31T01:33:01.275Z,11.52
2017-03-31T01:34:01.298Z,11.58
2017-03-31T01:35:01.324Z,11.55
2017-03-31T01:37:01.369Z,11.57
2017-03-31T01:38:01.081Z,11.55
2017-03-31T01:39:01.112Z,11.49
2017-03-31T01:40:01.129Z,11.44
2017-03-31T01:41:01.153Z,11.4
2017-03-31T01:42:01.171Z,11.43
2017-03-31T01:43:01.501Z,11.42
2017-03-31T01:44:01.521Z,11.36
2017-03-31T01:45:01.548Z,11.39
2017-03-31T01:46:01.260Z,11.39
2017-03-31T01:47:01.587Z,11.29
2017-03-31T01:48:01.607Z,11.27
2017-03-31T01:49:01.631Z,11.27
2017-03-31T01:50:01.655Z,11.28
2017-03-31T01:52:01.695Z,11.06
2017-03-31T01:53:01.760Z,11.09
2017-03-31T01:54:16.359Z,11.07
2017-03-31T01:55:01.762Z,11
2017-03-31T01:56:01.797Z,11.02
2017-03-31T01:57:01.808Z,11.02
2017-03-31T01:58:01.830Z,11.03
2017-03-31T01:59:16.469Z,10.89
2017-03-31T02:00:01.621Z,10.89
2017-03-31T02:01:01.897Z,10.92
2017-03-31T02:02:01.925Z,10.82
2017-03-31T02:03:01.941Z,10.94
2017-03-31T02:04:01.961Z,10.71
2017-03-31T02:05:01.985Z,10.79
2017-03-31T02:07:02.025Z,10.88
2017-03-31T02:10:16.710Z,10.89
2017-03-31T02:11:16.729Z,10.85
2017-03-31T02:12:02.137Z,10.86
2017-03-31T02:13:02.158Z,10.79
2017-03-31T02:14:02.180Z,10.73
2017-03-31T02:15:16.817Z,10.76
2017-03-31T02:16:02.222Z,10.78
2017-03-31T02:17:02.246Z,10.71
2017-03-31T02:18:02.265Z,10.7
2017-03-31T02:19:02.286Z,10.64
2017-03-31T02:20:02.309Z,10.61
2017-03-31T02:21:02.330Z,10.47
2017-03-31T02:22:02.355Z,10.4
2017-03-31T02:23:02.377Z,10.42
2017-03-31T02:24:17.017Z,10.34
2017-03-31T02:25:17.035Z,10.26
2017-03-31T02:26:02.439Z,10.3
2017-03-31T02:27:02.465Z,10.25
2017-03-31T02:28:02.484Z,10.2
2017-03-31T02:29:02.505Z,10.2
2017-03-31T02:30:02.533Z,10.2
2017-03-31T02:31:17.171Z,10.18
2017-03-31T02:32:02.574Z,10.15
2017-03-31T02:33:02.597Z,10.05
2017-03-31T02:34:02.617Z,10.12
2017-03-31T02:35:02.636Z,10.17
2017-03-31T02:37:02.375Z,10.12
2017-03-31T02:38:02.702Z,10.2
2017-03-31T02:39:02.726Z,10.23
2017-03-31T02:41:02.773Z,10.17
2017-03-31T02:42:02.783Z,10.11
2017-03-31T02:43:02.809Z,10.17
2017-03-31T02:44:17.445Z,10.17
2017-03-31T02:45:02.852Z,10.15
2017-03-31T02:46:02.568Z,10.17
2017-03-31T02:47:17.510Z,10.15
2017-03-31T02:48:02.918Z,10.22
2017-03-31T02:49:02.939Z,10.18
2017-03-31T02:50:02.963Z,10.08
2017-03-31T02:51:02.981Z,10.07
2017-03-31T02:53:03.023Z,9.99
2017-03-31T02:55:03.062Z,9.9
2017-03-31T02:56:03.090Z,10.04
2017-03-31T02:57:02.804Z,10.01
2017-03-31T02:59:03.154Z,10.01
2017-03-31T03:00:02.868Z,10.04
2017-03-31T03:01:02.895Z,9.96
2017-03-31T03:02:17.529Z,10.02
2017-03-31T03:03:03.240Z,9.99
2017-03-31T03:04:02.957Z,9.99
2017-03-31T03:05:03.284Z,10.01
2017-03-31T03:06:03.302Z,9.97
2017-03-31T03:07:03.332Z,10.02
2017-03-31T03:08:03.040Z,9.96
2017-03-31T03:10:03.385Z,9.89
2017-03-31T03:11:03.411Z,9.81
2017-03-31T03:12:03.430Z,9.81
2017-03-31T03:13:18.068Z,9.84
2017-03-31T03:14:03.470Z,9.83
2017-03-31T03:15:03.694Z,9.86
2017-03-31T03:16:03.514Z,9.76
2017-03-31T03:17:03.540Z,9.74
2017-03-31T03:18:03.707Z,9.69
2017-03-31T03:19:03.578Z,9.72
2017-03-31T03:20:03.598Z,9.71
2017-03-31T03:21:03.621Z,9.66
2017-03-31T03:22:03.645Z,9.71
2017-03-31T03:23:03.359Z,9.58
2017-03-31T03:24:03.683Z,9.66
2017-03-31T03:25:03.709Z,9.54
2017-03-31T03:26:03.728Z,9.6
2017-03-31T03:27:03.747Z,9.72
2017-03-31T03:28:03.771Z,9.54
2017-03-31T03:29:03.793Z,9.64
2017-03-31T03:30:18.427Z,9.65
2017-03-31T03:31:03.833Z,9.61
2017-03-31T03:32:03.853Z,9.68
2017-03-31T03:33:03.873Z,9.61
2017-03-31T03:34:18.510Z,9.66
2017-03-31T03:35:03.919Z,9.57
2017-03-31T03:36:03.938Z,9.64
2017-03-31T03:37:03.965Z,9.61
2017-03-31T03:38:03.982Z,9.65
2017-03-31T03:39:03.999Z,9.43
2017-03-31T03:41:04.045Z,9.46
2017-03-31T03:42:04.073Z,9.48
2017-03-31T03:43:04.087Z,9.46
2017-03-31T03:44:04.108Z,9.38
2017-03-31T03:45:04.129Z,9.42
2017-03-31T03:46:04.157Z,9.24
2017-03-31T03:47:04.170Z,9.26
2017-03-31T03:48:04.196Z,9.23
2017-03-31T03:49:04.214Z,9.23
2017-03-31T03:50:18.849Z,9.42
2017-03-31T03:51:03.950Z,9.39
2017-03-31T03:52:03.970Z,9.33
2017-03-31T03:53:04.299Z,9.5
2017-03-31T03:54:04.013Z,9.4
2017-03-31T03:57:04.130Z,9.39
2017-03-31T03:58:04.099Z,9.24
2017-03-31T03:59:04.425Z,9.35
2017-03-31T04:00:04.449Z,9.32
2017-03-31T04:01:04.468Z,9.38
2017-03-31T04:02:04.490Z,9.31
2017-03-31T04:03:04.507Z,9.31
2017-03-31T04:04:04.528Z,9.35
2017-03-31T04:05:04.246Z,9.26
2017-03-31T04:06:19.186Z,9.31
2017-03-31T04:07:04.593Z,9.36
2017-03-31T04:08:04.618Z,9.26
2017-03-31T04:09:04.637Z,9.14
2017-03-31T04:10:04.658Z,9.15
2017-03-31T04:11:04.677Z,9.15
2017-03-31T04:12:04.696Z,9.04
2017-03-31T04:13:04.730Z,9.1
2017-03-31T04:14:04.739Z,8.96
2017-03-31T04:15:04.761Z,9.04
2017-03-31T04:16:04.781Z,9.04
2017-03-31T04:17:04.799Z,9.02
2017-03-31T04:18:04.827Z,9.01
2017-03-31T04:19:04.846Z,9.01
2017-03-31T04:20:04.869Z,8.96
2017-03-31T04:21:04.892Z,9.04
2017-03-31T04:22:19.522Z,8.96
2017-03-31T04:23:04.934Z,9.08
2017-03-31T04:24:04.948Z,9.08
2017-03-31T04:25:04.668Z,9.02
2017-03-31T04:26:04.989Z,8.99
2017-03-31T04:27:05.013Z,8.96
2017-03-31T04:28:05.030Z,9.02
2017-03-31T04:30:05.075Z,9.02
2017-03-31T04:31:05.096Z,9.15
2017-03-31T04:32:05.118Z,9.24
2017-03-31T04:33:05.143Z,9.26
2017-03-31T04:34:19.772Z,9.18
2017-03-31T04:35:04.874Z,9.23
2017-03-31T04:36:05.202Z,9.21
2017-03-31T04:37:19.838Z,9.21
2017-03-31T04:38:05.241Z,9.18
2017-03-31T04:39:05.259Z,9.14
2017-03-31T04:40:05.284Z,9.15
2017-03-31T04:41:05.304Z,9.17
2017-03-31T04:42:05.625Z,9.1
2017-03-31T04:43:05.354Z,9.17
2017-03-31T04:44:05.388Z,9.14
2017-03-31T04:45:05.384Z,9.04
2017-03-31T04:47:05.479Z,8.96
2017-03-31T04:48:05.455Z,8.95
2017-03-31T04:49:05.470Z,8.86
2017-03-31T04:50:05.489Z,8.98
2017-03-31T04:51:05.516Z,8.99
2017-03-31T04:52:05.233Z,8.84
2017-03-31T04:53:05.569Z,8.84
2017-03-31T04:54:05.270Z,8.98
2017-03-31T04:56:05.617Z,9.11
2017-03-31T04:57:05.637Z,9.18
2017-03-31T04:58:05.663Z,9.17
2017-03-31T04:59:05.376Z,9.18
2017-03-31T05:00:05.701Z,9.17
2017-03-31T05:01:20.340Z,9.17
2017-03-31T05:02:05.798Z,9.1
2017-03-31T05:03:05.458Z,9.2
2017-03-31T05:04:05.793Z,9.23
2017-03-31T05:05:05.805Z,9.33
2017-03-31T05:06:05.830Z,9.26
2017-03-31T05:07:05.848Z,9.32
2017-03-31T05:08:05.866Z,9.4
2017-03-31T05:09:20.504Z,9.36
2017-03-31T05:10:05.607Z,9.4
2017-03-31T05:11:05.930Z,9.46
2017-03-31T05:12:05.978Z,9.58
2017-03-31T05:13:05.972Z,9.54
2017-03-31T05:14:05.998Z,9.64
2017-03-31T05:15:05.710Z,9.68
2017-03-31T05:16:06.034Z,9.76
2017-03-31T05:17:06.057Z,9.93
2017-03-31T05:19:20.412Z,9.91
2017-03-31T05:21:05.840Z,10.05
2017-03-31T05:22:06.164Z,10.14
2017-03-31T05:23:05.880Z,10.17
2017-03-31T05:24:06.208Z,10.17
2017-03-31T05:25:20.844Z,10.23
2017-03-31T05:26:05.945Z,10.17
2017-03-31T05:27:06.269Z,10.22
2017-03-31T05:28:05.988Z,10.17
2017-03-31T05:29:06.310Z,10.2
2017-03-31T05:30:06.335Z,10.25
2017-03-31T05:31:06.359Z,10.36
2017-03-31T05:32:06.380Z,10.36
2017-03-31T05:33:06.404Z,10.48
2017-03-31T05:34:06.424Z,10.6
2017-03-31T05:36:06.474Z,10.7
2017-03-31T05:37:21.106Z,10.71
2017-03-31T05:38:06.508Z,10.84
2017-03-31T05:39:06.532Z,10.94
2017-03-31T05:40:06.555Z,10.96
2017-03-31T05:41:21.194Z,11.17
2017-03-31T05:42:06.297Z,11.19
2017-03-31T05:43:06.623Z,11.27
2017-03-31T05:44:06.644Z,11.22
2017-03-31T05:45:06.691Z,11.29
2017-03-31T05:47:06.719Z,11.44
2017-03-31T05:48:06.735Z,11.37
2017-03-31T05:49:06.453Z,11.44
2017-03-31T05:50:06.781Z,11.51
2017-03-31T05:51:06.808Z,11.69
2017-03-31T05:52:06.824Z,11.62
2017-03-31T05:53:06.848Z,11.61
2017-03-31T05:54:06.873Z,11.73
2017-03-31T05:55:06.899Z,11.75
2017-03-31T05:56:06.920Z,11.78
2017-03-31T05:57:21.557Z,11.94
2017-03-31T05:58:06.966Z,12.09
2017-03-31T05:59:06.989Z,12.19
2017-03-31T06:00:07.016Z,12.28
2017-03-31T06:01:07.036Z,12.45
2017-03-31T06:02:07.059Z,12.57
2017-03-31T06:03:07.083Z,12.54
2017-03-31T06:05:07.134Z,12.85
2017-03-31T06:06:07.155Z,12.82
2017-03-31T06:07:07.180Z,12.92
2017-03-31T06:08:07.203Z,12.9
2017-03-31T06:09:21.845Z,13.14
2017-03-31T06:10:07.257Z,13.29
2017-03-31T06:11:07.278Z,13.51
2017-03-31T06:12:21.918Z,13.6
2017-03-31T06:13:07.333Z,13.78
2017-03-31T06:14:07.051Z,13.95
2017-03-31T06:15:07.379Z,14.14
2017-03-31T06:16:07.411Z,14.24
2017-03-31T06:17:21.764Z,14.4
2017-03-31T06:18:07.458Z,14.68
2017-03-31T06:19:07.482Z,14.65
2017-03-31T06:20:07.203Z,14.64
2017-03-31T06:22:22.180Z,14.91
2017-03-31T06:23:07.588Z,15.13
2017-03-31T06:24:07.619Z,15.19
2017-03-31T06:25:22.259Z,15.31
2017-03-31T06:26:07.671Z,15.35
2017-03-31T06:27:07.699Z,15.51
2017-03-31T06:28:07.726Z,15.65
2017-03-31T06:29:07.147Z,15.71
2017-03-31T06:30:07.179Z,15.76
2017-03-31T06:31:07.809Z,15.92
2017-03-31T06:32:07.840Z,16.11
2017-03-31T06:33:07.562Z,16.04
2017-03-31T06:37:07.984Z,16.11
2017-03-31T06:38:08.010Z,16.35
2017-03-31T06:39:08.040Z,16.53
2017-03-31T06:40:07.770Z,16.76
2017-03-31T06:41:22.717Z,17.08
2017-03-31T06:42:07.826Z,17.01
2017-03-31T06:43:08.157Z,17.3
2017-03-31T06:44:22.808Z,17.52
2017-03-31T06:45:07.916Z,17.63
2017-03-31T06:46:08.250Z,17.96
2017-03-31T06:47:08.281Z,18.1
2017-03-31T06:48:08.313Z,18.14
2017-03-31T06:49:08.352Z,18.44
2017-03-31T06:50:08.375Z,18.27
2017-03-31T06:51:08.412Z,18.45
2017-03-31T06:52:08.134Z,18.58
2017-03-31T06:53:08.167Z,18.85
2017-03-31T06:55:08.534Z,19.13
2017-03-31T06:56:23.183Z,19.23
2017-03-31T06:57:08.296Z,19.28
2017-03-31T06:58:08.630Z,19.31
2017-03-31T06:59:08.662Z,19.48
2017-03-31T07:00:23.314Z,19.58
2017-03-31T07:01:08.729Z,19.41
2017-03-31T07:02:08.456Z,19.55
2017-03-31T07:03:08.488Z,19.58
2017-03-31T07:04:08.825Z,19.66
2017-03-31T07:05:08.860Z,19.71
2017-03-31T07:06:08.943Z,19.74
2017-03-31T07:08:08.960Z,20.11
2017-03-31T07:09:08.994Z,19.83
2017-03-31T07:10:23.648Z,20.13
2017-03-31T07:11:09.067Z,20.24
2017-03-31T07:12:09.092Z,20.11
2017-03-31T07:13:09.129Z,20.11
2017-03-31T07:14:09.161Z,20.28
2017-03-31T07:15:09.198Z,20.41
2017-03-31T07:16:23.845Z,20.66
2017-03-31T07:17:09.260Z,20.72
2017-03-31T07:18:09.303Z,20.85
2017-03-31T07:19:09.332Z,20.89
2017-03-31T07:20:09.364Z,20.85
2017-03-31T07:21:09.397Z,20.95
2017-03-31T07:22:09.437Z,21.14
2017-03-31T07:23:09.467Z,21.14
2017-03-31T07:25:09.534Z,21.49
2017-03-31T07:26:24.189Z,21.43
2017-03-31T07:27:24.223Z,21.44
2017-03-31T07:28:09.641Z,21.53
2017-03-31T07:29:09.707Z,21.75
2017-03-31T07:30:09.708Z,21.94
2017-03-31T07:31:09.739Z,22.03
2017-03-31T07:32:24.395Z,22.05
2017-03-31T07:33:09.809Z,22.12
2017-03-31T07:34:09.548Z,22.09
2017-03-31T07:35:09.880Z,22.1
2017-03-31T07:36:09.913Z,22.18
2017-03-31T07:37:09.644Z,21.98
2017-03-31T07:38:09.676Z,21.67
2017-03-31T07:39:09.712Z,21.72
2017-03-31T07:40:10.049Z,22.09
2017-03-31T07:41:10.089Z,21.86
2017-03-31T07:42:10.121Z,21.98
2017-03-31T07:43:10.154Z,22.06
2017-03-31T07:44:09.883Z,22.12
2017-03-31T07:45:10.221Z,22.25
2017-03-31T07:46:10.258Z,22.6
2017-03-31T07:47:24.604Z,22.77
2017-03-31T07:48:10.323Z,22.91
2017-03-31T07:49:10.359Z,22.79
2017-03-31T07:50:10.397Z,22.94
2017-03-31T07:51:10.427Z,22.85
2017-03-31T07:54:10.531Z,22.39
2017-03-31T07:55:10.562Z,22.55
2017-03-31T07:56:10.600Z,22.72
2017-03-31T07:57:10.632Z,22.75
2017-03-31T07:58:24.980Z,22.83
2017-03-31T07:59:10.701Z,23.02
2017-03-31T08:00:25.352Z,23.02
2017-03-31T08:01:10.769Z,23.15
2017-03-31T08:02:10.804Z,23.27
2017-03-31T08:03:10.838Z,23.28
2017-03-31T08:04:10.867Z,23.15
2017-03-31T08:05:10.944Z,23.31
2017-03-31T08:06:10.635Z,23.57
2017-03-31T08:07:10.973Z,23.75
2017-03-31T08:08:11.012Z,23.72
2017-03-31T08:09:11.040Z,24.02
2017-03-31T08:10:11.073Z,24.06
2017-03-31T08:12:11.144Z,23.98
2017-03-31T08:13:11.176Z,23.83
2017-03-31T08:14:25.831Z,23.94
2017-03-31T08:15:11.543Z,24.15
2017-03-31T08:16:11.285Z,24.24
2017-03-31T08:17:11.321Z,24.42
2017-03-31T08:18:11.379Z,24.24
2017-03-31T08:19:26.002Z,24.22
2017-03-31T08:20:11.418Z,24.12
2017-03-31T08:21:11.449Z,24.12
2017-03-31T08:22:11.483Z,24.24
2017-03-31T08:23:11.520Z,24.15
2017-03-31T08:24:11.552Z,24.25
2017-03-31T08:25:11.584Z,24.24
2017-03-31T08:26:11.627Z,24.24
2017-03-31T08:27:11.652Z,24.15
2017-03-31T08:28:26.305Z,24.16
2017-03-31T08:29:11.720Z,24.43
2017-03-31T08:30:26.373Z,24.46
2017-03-31T08:31:11.789Z,24.58
2017-03-31T08:32:11.823Z,24.78
2017-03-31T08:33:11.854Z,24.87
2017-03-31T08:34:11.583Z,24.78
2017-03-31T08:35:26.541Z,25.02
2017-03-31T08:36:11.349Z,25.09
2017-03-31T08:37:11.990Z,24.91
2017-03-31T08:38:12.026Z,24.95
2017-03-31T08:39:12.054Z,24.95
2017-03-31T08:40:12.096Z,24.88
2017-03-31T08:41:12.120Z,24.69
2017-03-31T08:42:11.851Z,24.6
2017-03-31T08:43:12.193Z,24.73
2017-03-31T08:44:12.227Z,24.68
2017-03-31T08:45:12.258Z,24.61
2017-03-31T08:46:12.285Z,24.64
2017-03-31T08:47:12.322Z,24.73
2017-03-31T08:48:12.354Z,24.78
2017-03-31T08:49:12.382Z,24.65
2017-03-31T08:50:12.471Z,24.46
2017-03-31T08:51:27.066Z,24.64
2017-03-31T08:52:12.483Z,24.55
2017-03-31T08:53:12.518Z,24.53
2017-03-31T08:54:12.556Z,24.62
2017-03-31T08:55:12.582Z,24.81
2017-03-31T08:56:12.615Z,25.06
2017-03-31T08:57:12.652Z,25.21
2017-03-31T08:58:12.681Z,25.08
2017-03-31T08:59:12.713Z,24.87
2017-03-31T09:00:27.367Z,24.9
2017-03-31T09:01:12.779Z,25.05
2017-03-31T09:02:12.810Z,25.06
2017-03-31T09:03:12.542Z,25.2
2017-03-31T09:04:12.883Z,24.99
2017-03-31T09:05:12.912Z,24.91
2017-03-31T09:06:12.639Z,24.88
2017-03-31T09:07:27.596Z,25.15
2017-03-31T09:08:13.032Z,25.23
2017-03-31T09:09:13.043Z,25.28
2017-03-31T09:10:12.772Z,25.62
2017-03-31T09:11:13.111Z,25.52
2017-03-31T09:12:13.142Z,25.75
2017-03-31T09:13:13.172Z,25.61
2017-03-31T09:14:13.209Z,25.6
2017-03-31T09:15:13.237Z,25.82
2017-03-31T09:16:27.586Z,25.58
2017-03-31T09:18:13.337Z,25.75
2017-03-31T09:19:27.985Z,25.73
2017-03-31T09:20:13.098Z,25.77
2017-03-31T09:21:13.439Z,25.42
2017-03-31T09:22:27.780Z,25.43
2017-03-31T09:23:13.503Z,25.46
2017-03-31T09:24:13.531Z,25.2
2017-03-31T09:25:13.565Z,25.1
2017-03-31T09:26:13.596Z,25.33
2017-03-31T09:27:13.326Z,25.25
2017-03-31T09:28:13.358Z,25.17
2017-03-31T09:30:13.726Z,24.96
2017-03-31T09:32:13.795Z,25.14
2017-03-31T09:33:13.821Z,25.08
2017-03-31T09:34:28.472Z,25.13
2017-03-31T09:35:13.887Z,24.87
2017-03-31T09:36:13.922Z,24.95
2017-03-31T09:37:13.948Z,24.96
2017-03-31T09:38:13.985Z,25.2
2017-03-31T09:39:14.012Z,25.35
2017-03-31T09:40:14.047Z,25.28
2017-03-31T09:41:14.080Z,25.2
2017-03-31T09:42:14.109Z,25.15
2017-03-31T09:43:14.144Z,25.15
2017-03-31T09:44:14.176Z,25.17
2017-03-31T09:45:14.205Z,25.15
2017-03-31T09:46:13.933Z,24.77
2017-03-31T09:47:14.267Z,24.85
2017-03-31T09:48:28.919Z,24.93
2017-03-31T09:49:14.328Z,24.9
2017-03-31T09:50:14.363Z,24.93
2017-03-31T09:51:14.437Z,25.08
2017-03-31T09:52:14.126Z,25.13
2017-03-31T09:53:14.462Z,25.05
2017-03-31T09:54:29.107Z,24.85
2017-03-31T09:55:14.520Z,24.6
2017-03-31T09:56:14.551Z,24.4
2017-03-31T09:57:14.584Z,24.47
2017-03-31T09:58:14.610Z,24.58
2017-03-31T09:59:14.367Z,24.65
2017-03-31T10:00:14.677Z,24.78
2017-03-31T10:02:14.438Z,24.88
2017-03-31T10:03:14.769Z,24.83
2017-03-31T10:04:14.799Z,24.64
2017-03-31T10:05:14.863Z,24.69
2017-03-31T10:06:14.900Z,24.65
2017-03-31T10:07:14.894Z,24.78
2017-03-31T10:08:14.929Z,24.67
2017-03-31T10:09:14.957Z,24.81
2017-03-31T10:10:29.603Z,24.93
2017-03-31T10:11:15.022Z,25.17
2017-03-31T10:12:15.050Z,25.24
2017-03-31T10:13:15.079Z,25.32
2017-03-31T10:14:15.111Z,25.13
2017-03-31T10:15:15.141Z,24.9
2017-03-31T10:16:15.177Z,24.8
2017-03-31T10:17:15.203Z,24.71
2017-03-31T10:18:15.232Z,24.73
2017-03-31T10:19:15.258Z,24.61
2017-03-31T10:20:15.304Z,24.71
2017-03-31T10:21:29.943Z,24.53
2017-03-31T10:22:15.359Z,24.49
2017-03-31T10:23:15.387Z,24.42
2017-03-31T10:24:15.428Z,24.45
2017-03-31T10:25:15.446Z,24.58
2017-03-31T10:26:30.125Z,24.53
2017-03-31T10:27:15.537Z,24.57
2017-03-31T10:28:15.596Z,24.6
2017-03-31T10:29:15.571Z,24.62
2017-03-31T10:30:15.602Z,24.58
2017-03-31T10:31:15.660Z,24.58
2017-03-31T10:32:15.672Z,24.77
2017-03-31T10:33:15.722Z,24.73
2017-03-31T10:34:15.773Z,24.69
2017-03-31T10:35:15.778Z,24.8
2017-03-31T10:36:15.793Z,24.71
2017-03-31T10:37:15.839Z,24.53
2017-03-31T10:38:15.915Z,24.45
2017-03-31T10:39:15.919Z,24.35
2017-03-31T10:40:15.909Z,24.43
2017-03-31T10:41:15.943Z,24.43
2017-03-31T10:42:30.604Z,24.46
2017-03-31T10:43:16.028Z,24.52
2017-03-31T10:44:16.036Z,24.43
2017-03-31T10:45:16.057Z,24.49
2017-03-31T10:46:16.090Z,24.35
2017-03-31T10:48:16.149Z,24.43
2017-03-31T10:50:16.209Z,24.53
2017-03-31T10:51:16.241Z,24.6
2017-03-31T10:52:16.270Z,24.67
2017-03-31T10:53:16.003Z,24.73
2017-03-31T10:54:16.331Z,25.03
2017-03-31T10:55:16.361Z,24.93
2017-03-31T10:56:16.392Z,24.91
2017-03-31T10:57:30.734Z,24.9
2017-03-31T10:58:16.451Z,24.93
2017-03-31T10:59:16.176Z,24.87
2017-03-31T11:00:16.512Z,24.77
2017-03-31T11:01:16.541Z,24.88
2017-03-31T11:02:16.572Z,24.8
2017-03-31T11:03:16.598Z,24.61
2017-03-31T11:04:16.631Z,24.62
2017-03-31T11:05:16.658Z,24.68
2017-03-31T11:06:16.692Z,24.78
2017-03-31T11:07:16.723Z,24.69
2017-03-31T11:08:16.745Z,24.8
2017-03-31T11:09:31.396Z,24.87
2017-03-31T11:10:16.807Z,24.93
2017-03-31T11:11:16.840Z,24.98
2017-03-31T11:12:16.870Z,24.96
2017-03-31T11:13:16.898Z,24.98
2017-03-31T11:14:16.928Z,24.91
2017-03-31T11:15:16.961Z,25
2017-03-31T11:17:17.013Z,24.93
2017-03-31T11:18:17.044Z,25.09
2017-03-31T11:19:17.076Z,25.08
2017-03-31T11:20:17.105Z,25.05
2017-03-31T11:21:31.755Z,25.05
2017-03-31T11:22:31.784Z,25.03
2017-03-31T11:23:17.196Z,24.99
2017-03-31T11:24:17.225Z,24.91
2017-03-31T11:25:17.258Z,24.8
2017-03-31T11:26:31.898Z,24.88
2017-03-31T11:27:17.314Z,24.91
2017-03-31T11:28:17.340Z,24.81
2017-03-31T11:29:31.988Z,24.8
2017-03-31T11:30:17.404Z,24.69
2017-03-31T11:31:17.428Z,24.77
2017-03-31T11:32:17.461Z,24.81
2017-03-31T11:33:17.487Z,25.03
2017-03-31T11:34:17.517Z,24.98
2017-03-31T11:35:17.555Z,25.06
2017-03-31T11:36:17.272Z,25.21
2017-03-31T11:37:32.242Z,25.3
2017-03-31T11:38:17.637Z,25.3
2017-03-31T11:39:17.665Z,25.21
2017-03-31T11:40:17.692Z,24.62
2017-03-31T11:41:17.725Z,24.5
2017-03-31T11:42:32.370Z,24.49
2017-03-31T11:43:17.779Z,24.53
2017-03-31T11:44:17.812Z,24.62
2017-03-31T11:45:32.459Z,24.69
2017-03-31T11:46:17.879Z,24.76
2017-03-31T11:47:17.904Z,24.69
2017-03-31T11:48:17.930Z,24.67
2017-03-31T11:49:17.958Z,24.61
2017-03-31T11:50:17.988Z,24.58
2017-03-31T11:51:18.015Z,24.57
2017-03-31T11:52:17.743Z,24.64
2017-03-31T11:53:18.072Z,24.77
2017-03-31T11:54:17.801Z,24.88
2017-03-31T11:55:18.133Z,24.99
2017-03-31T11:56:32.781Z,25.06
2017-03-31T11:57:17.889Z,25.06
2017-03-31T11:58:18.220Z,25.03
2017-03-31T11:59:18.249Z,25.2
2017-03-31T12:00:17.980Z,25.09
2017-03-31T12:01:32.925Z,24.9
2017-03-31T12:03:18.371Z,24.77
2017-03-31T12:04:18.094Z,24.78
2017-03-31T12:05:18.120Z,24.69
2017-03-31T12:06:18.150Z,24.81
2017-03-31T12:07:18.382Z,24.77
2017-03-31T12:08:18.512Z,24.47
2017-03-31T12:09:18.238Z,24.43
2017-03-31T12:10:18.575Z,24.49
2017-03-31T12:11:18.598Z,24.47
2017-03-31T12:12:18.329Z,24.55
2017-03-31T12:13:18.657Z,24.57
2017-03-31T12:14:33.303Z,24.4
2017-03-31T12:15:18.725Z,24.4
2017-03-31T12:16:18.442Z,24.55
2017-03-31T12:17:33.087Z,24.57
2017-03-31T12:19:18.528Z,24.73
2017-03-31T12:20:18.864Z,24.71
2017-03-31T12:21:18.892Z,24.69
2017-03-31T12:22:18.920Z,24.77
2017-03-31T12:23:18.949Z,24.85
2017-03-31T12:24:18.977Z,24.67
2017-03-31T12:25:19.007Z,24.87
2017-03-31T12:26:19.034Z,24.83
2017-03-31T12:27:19.063Z,24.9
2017-03-31T12:28:19.091Z,24.91
2017-03-31T12:29:19.120Z,24.83
2017-03-31T12:30:33.765Z,24.69
2017-03-31T12:31:19.179Z,24.77
2017-03-31T12:32:33.827Z,24.6
2017-03-31T12:33:19.238Z,24.67
2017-03-31T12:34:19.280Z,24.61
2017-03-31T12:36:19.322Z,24.64
2017-03-31T12:37:19.354Z,24.53
2017-03-31T12:38:19.381Z,24.42
2017-03-31T12:39:19.411Z,24.53
2017-03-31T12:40:19.439Z,24.32
2017-03-31T12:41:19.469Z,24.45
2017-03-31T12:43:19.528Z,24.4
2017-03-31T12:44:19.554Z,24.6
2017-03-31T12:45:34.200Z,24.71
2017-03-31T12:46:19.610Z,24.58
2017-03-31T12:47:19.644Z,24.67
2017-03-31T12:48:19.674Z,24.61
2017-03-31T12:49:19.701Z,24.58
2017-03-31T12:50:19.744Z,24.61
2017-03-31T12:51:19.759Z,24.73
2017-03-31T12:52:19.784Z,24.67
2017-03-31T12:53:19.511Z,24.71
2017-03-31T12:55:19.872Z,24.58
2017-03-31T12:56:19.900Z,24.57
2017-03-31T12:57:19.933Z,24.45
2017-03-31T12:58:19.959Z,24.37
2017-03-31T12:59:19.986Z,24.4
2017-03-31T13:00:19.714Z,24.45
2017-03-31T13:01:19.739Z,24.49
2017-03-31T13:02:19.768Z,24.53
2017-03-31T13:03:20.101Z,24.62
2017-03-31T13:04:34.746Z,24.57
2017-03-31T13:05:20.156Z,24.58
2017-03-31T13:06:19.881Z,24.6
2017-03-31T13:07:19.912Z,24.55
2017-03-31T13:08:19.941Z,24.64
2017-03-31T13:09:20.273Z,24.6
2017-03-31T13:10:20.301Z,24.6
2017-03-31T13:11:20.328Z,24.62
2017-03-31T13:12:20.058Z,24.45
2017-03-31T13:13:20.389Z,24.35
2017-03-31T13:14:20.411Z,24.5
2017-03-31T13:15:20.145Z,24.52
2017-03-31T13:16:20.474Z,24.45
2017-03-31T13:17:20.507Z,24.47
2017-03-31T13:18:19.924Z,24.39
2017-03-31T13:19:20.557Z,24.43
2017-03-31T13:20:35.206Z,24.35
2017-03-31T13:21:20.615Z,24.45
2017-03-31T13:23:20.671Z,24.39
2017-03-31T13:24:20.702Z,24.4
2017-03-31T13:25:20.728Z,24.4
2017-03-31T13:26:20.758Z,24.39
2017-03-31T13:27:20.785Z,24.42
2017-03-31T13:28:20.821Z,24.42
2017-03-31T13:30:20.880Z,24.32
2017-03-31T13:32:20.930Z,24.32
2017-03-31T13:33:20.961Z,24.37
2017-03-31T13:34:20.379Z,24.28
2017-03-31T13:35:20.708Z,24.4
2017-03-31T13:36:35.357Z,24.42
2017-03-31T13:37:21.070Z,24.46
2017-03-31T13:38:21.101Z,24.46
2017-03-31T13:39:21.126Z,24.45
2017-03-31T13:40:21.156Z,24.47
2017-03-31T13:41:21.185Z,24.35
2017-03-31T13:42:21.214Z,24.34
2017-03-31T13:43:21.241Z,24.34
2017-03-31T13:44:21.269Z,24.27
2017-03-31T13:45:21.299Z,24.25
2017-03-31T13:46:21.330Z,24.13
2017-03-31T13:47:21.054Z,24.24
2017-03-31T13:48:36.000Z,24.45
2017-03-31T13:49:21.413Z,24.4
2017-03-31T13:50:21.438Z,24.46
2017-03-31T13:51:21.472Z,24.6